Time;durP1;ratioP1;P1;durP2;ratioP2;P2;SDS_P1;SDS_P2;PMS_P1;PMS_P2;Temp;Humidity;BMP_temperature;BMP_pressure;BME280_temperature;BME280_humidity;BME280_pressure;Samples;Min_cycle;Max_cycle;Signal;HPM_P1;HPM_P2
2023/10/02 00:01:07;;;;;;;14.45;8.38;;;;;;;;;;5024922;28;20407;-58
2023/10/02 00:03:33;;;;;;;14.13;8.38;;;;;;;;;;5022165;28;20403;-58
2023/10/02 00:05:58;;;;;;;14.60;8.85;;;;;;;;;;5022313;28;20410;-58
2023/10/02 00:08:39;;;;;;;14.47;8.40;;;;;;;;;;5016692;28;20403;-58
2023/10/02 00:14:18;;;;;;;15.10;8.43;;;;;;;;;;5022031;28;20453;-58
2023/10/02 00:16:42;;;;;;;14.27;8.20;;;;;;;;;;5019842;28;20404;-57
2023/10/02 00:19:18;;;;;;;15.40;8.70;;;;;;;;;;5024551;28;20399;-58
2023/10/02 00:21:44;;;;;;;15.10;8.52;;;;;;;;;;5024267;28;21061;-58
2023/10/02 00:24:09;;;;;;;15.55;8.70;;;;;;;;;;5018295;28;20444;-57
2023/10/02 00:26:35;;;;;;;15.53;8.77;;;;;;;;;;5017855;28;20913;-58
2023/10/02 00:29:06;;;;;;;15.63;9.00;;;;;;;;;;5024062;28;20482;-59
2023/10/02 00:31:38;;;;;;;14.20;8.50;;;;;;;;;;5017258;28;20400;-58
2023/10/02 00:34:03;;;;;;;16.60;8.80;;;;;;;;;;5017904;28;20419;-58
2023/10/02 00:36:30;;;;;;;16.40;9.07;;;;;;;;;;5031846;28;20402;-58
2023/10/02 00:39:24;;;;;;;18.40;9.35;;;;;;;;;;5024670;28;20789;-58
2023/10/02 00:42:10;;;;;;;15.00;9.02;;;;;;;;;;5022124;28;20419;-58
2023/10/02 00:47:15;;;;;;;15.88;8.73;;;;;;;;;;5019748;28;20481;-58
2023/10/02 00:49:41;;;;;;;17.57;9.47;;;;;;;;;;5024828;28;20411;-58
2023/10/02 00:52:07;;;;;;;16.75;9.48;;;;;;;;;;5015759;28;20595;-58
2023/10/02 00:54:34;;;;;;;16.50;9.13;;;;;;;;;;5020249;28;20444;-58
2023/10/02 00:57:00;;;;;;;15.55;9.77;;;;;;;;;;5022665;28;20450;-58
2023/10/02 00:59:25;;;;;;;17.30;9.77;;;;;;;;;;5024248;28;20409;-58
2023/10/02 01:01:50;;;;;;;15.60;8.63;;;;;;;;;;5017431;28;20416;-58
2023/10/02 01:04:28;;;;;;;16.67;9.03;;;;;;;;;;5016824;28;20906;-58
2023/10/02 01:06:54;;;;;;;15.23;8.60;;;;;;;;;;5015982;28;20410;-58
2023/10/02 01:09:22;;;;;;;16.77;9.15;;;;;;;;;;5022794;28;20495;-58
2023/10/02 01:11:48;;;;;;;15.43;8.80;;;;;;;;;;5019866;28;20737;-58
2023/10/02 01:14:37;;;;;;;15.85;9.13;;;;;;;;;;5022400;28;20508;-58
2023/10/02 01:16:59;;;;;;;15.90;9.52;;;;;;;;;;5023266;28;20396;-58
2023/10/02 01:19:24;;;;;;;16.55;9.35;;;;;;;;;;5015485;28;20478;-58
2023/10/02 01:21:49;;;;;;;16.77;9.53;;;;;;;;;;5016922;28;20414;-58
2023/10/02 01:24:17;;;;;;;16.33;9.43;;;;;;;;;;5021169;28;20928;-58
2023/10/02 01:26:43;;;;;;;15.85;9.40;;;;;;;;;;5015820;28;20463;-58
2023/10/02 01:29:10;;;;;;;16.73;8.50;;;;;;;;;;5021792;28;20457;-58
2023/10/02 01:31:44;;;;;;;16.45;8.77;;;;;;;;;;5026879;28;20502;-58
2023/10/02 01:34:10;;;;;;;16.73;8.55;;;;;;;;;;5023657;28;20446;-58
2023/10/02 01:36:38;;;;;;;14.05;8.50;;;;;;;;;;5022765;28;20782;-58
2023/10/02 01:39:13;;;;;;;16.80;8.57;;;;;;;;;;5017603;28;20891;-58
2023/10/02 01:41:40;;;;;;;15.68;9.15;;;;;;;;;;5014530;28;20532;-58
2023/10/02 01:44:10;;;;;;;16.75;9.38;;;;;;;;;;5021223;28;20460;-58
2023/10/02 01:46:36;;;;;;;15.35;8.90;;;;;;;;;;5019061;28;20445;-58
2023/10/02 01:49:02;;;;;;;15.32;8.85;;;;;;;;;;5016134;28;20962;-58
2023/10/02 01:51:27;;;;;;;16.23;9.50;;;;;;;;;;5022737;28;20400;-58
2023/10/02 01:53:54;;;;;;;16.30;9.17;;;;;;;;;;5015656;28;20412;-58
2023/10/02 01:56:19;;;;;;;16.83;9.30;;;;;;;;;;5017293;28;20415;-58
2023/10/02 01:58:45;;;;;;;15.77;9.43;;;;;;;;;;5022820;28;20465;-58
2023/10/02 02:01:11;;;;;;;16.30;8.90;;;;;;;;;;5014968;28;20405;-58
2023/10/02 02:03:36;;;;;;;16.92;9.07;;;;;;;;;;5019559;28;20775;-58
2023/10/02 02:06:08;;;;;;;18.13;9.43;;;;;;;;;;5020530;28;20413;-58
2023/10/02 02:08:35;;;;;;;15.30;8.93;;;;;;;;;;5014875;28;20915;-58
2023/10/02 02:11:14;;;;;;;17.77;9.30;;;;;;;;;;5021720;28;20465;-59
2023/10/02 02:13:44;;;;;;;18.03;9.80;;;;;;;;;;5003467;28;20409;-58
2023/10/02 02:16:14;;;;;;;16.50;9.10;;;;;;;;;;5012000;28;20924;-58
2023/10/02 02:18:41;;;;;;;17.20;9.48;;;;;;;;;;5004922;28;20411;-58
2023/10/02 02:21:10;;;;;;;17.63;9.85;;;;;;;;;;5004475;28;20407;-59
2023/10/02 02:23:35;;;;;;;17.40;9.88;;;;;;;;;;5009080;28;20423;-58
2023/10/02 02:26:00;;;;;;;16.53;9.40;;;;;;;;;;5000356;28;20399;-59
2023/10/02 02:28:26;;;;;;;18.20;9.80;;;;;;;;;;4996280;28;20895;-58
2023/10/02 02:30:51;;;;;;;16.50;10.20;;;;;;;;;;4999452;28;20611;-58
2023/10/02 02:33:27;;;;;;;16.03;9.40;;;;;;;;;;4999827;28;20756;-57
2023/10/02 02:36:05;;;;;;;18.70;10.02;;;;;;;;;;5003738;28;21030;-58
2023/10/02 02:38:33;;;;;;;16.23;9.75;;;;;;;;;;5004388;28;20937;-58
2023/10/02 02:41:05;;;;;;;17.63;9.97;;;;;;;;;;5007572;28;20415;-58
2023/10/02 02:43:30;;;;;;;14.33;8.77;;;;;;;;;;5004329;28;20905;-58
2023/10/02 02:45:56;;;;;;;15.20;9.18;;;;;;;;;;5004829;28;20405;-58
2023/10/02 02:48:21;;;;;;;16.30;9.60;;;;;;;;;;5002054;28;20399;-58
2023/10/02 02:50:47;;;;;;;15.48;9.48;;;;;;;;;;5002952;28;20439;-58
2023/10/02 02:53:30;;;;;;;16.10;9.93;;;;;;;;;;4996500;28;20416;-58
2023/10/02 02:56:16;;;;;;;15.75;9.30;;;;;;;;;;5003623;28;20416;-58
2023/10/02 02:58:48;;;;;;;16.67;9.35;;;;;;;;;;5008026;28;20407;-58
2023/10/02 03:01:21;;;;;;;15.70;9.63;;;;;;;;;;5013844;28;20492;-58
2023/10/02 03:03:47;;;;;;;16.85;9.82;;;;;;;;;;5007105;28;20498;-58
2023/10/02 03:06:13;;;;;;;16.07;9.33;;;;;;;;;;5007507;28;20515;-58
2023/10/02 03:08:39;;;;;;;15.67;9.73;;;;;;;;;;5011232;28;20438;-58
2023/10/02 03:11:06;;;;;;;17.50;10.60;;;;;;;;;;5004042;28;20407;-58
2023/10/02 03:13:34;;;;;;;16.42;10.18;;;;;;;;;;4999668;28;20401;-58
2023/10/02 03:16:08;;;;;;;18.88;10.60;;;;;;;;;;5001055;28;20457;-58
2023/10/02 03:18:36;;;;;;;17.15;10.35;;;;;;;;;;5010119;28;20446;-58
2023/10/02 03:21:15;;;;;;;16.08;10.07;;;;;;;;;;5009592;28;20408;-59
2023/10/02 03:23:42;;;;;;;18.30;10.30;;;;;;;;;;5006178;28;20416;-58
2023/10/02 03:26:27;;;;;;;16.35;10.00;;;;;;;;;;5009419;28;22418;-58
2023/10/02 03:29:00;;;;;;;16.33;9.95;;;;;;;;;;5014145;28;20412;-58
2023/10/02 03:31:34;;;;;;;19.40;10.55;;;;;;;;;;5006300;28;20413;-58
2023/10/02 03:34:00;;;;;;;18.60;10.48;;;;;;;;;;5004473;28;20428;-58
2023/10/02 03:36:27;;;;;;;17.77;9.98;;;;;;;;;;5001470;28;20401;-58
2023/10/02 03:38:54;;;;;;;17.97;10.50;;;;;;;;;;4998120;28;20772;-58
2023/10/02 03:41:20;;;;;;;16.52;9.65;;;;;;;;;;5002551;28;20476;-58
2023/10/02 03:43:46;;;;;;;17.83;10.03;;;;;;;;;;5007453;28;20799;-58
2023/10/02 03:46:22;;;;;;;17.58;10.05;;;;;;;;;;5006902;28;20415;-58
2023/10/02 03:48:51;;;;;;;17.67;9.88;;;;;;;;;;5007855;28;20414;-58
2023/10/02 03:51:35;;;;;;;17.95;9.90;;;;;;;;;;5007153;28;20415;-58
2023/10/02 03:54:17;;;;;;;16.83;9.68;;;;;;;;;;5007563;28;20846;-58
2023/10/02 03:56:47;;;;;;;17.98;10.27;;;;;;;;;;5006507;28;20487;-58
2023/10/02 03:59:13;;;;;;;16.42;9.77;;;;;;;;;;4997485;28;21132;-58
2023/10/02 04:01:40;;;;;;;17.40;9.57;;;;;;;;;;4998863;28;20841;-58
2023/10/02 04:04:19;;;;;;;16.27;9.80;;;;;;;;;;5005499;28;20927;-59
2023/10/02 04:06:44;;;;;;;16.73;9.77;;;;;;;;;;5005822;28;20417;-58
2023/10/02 04:11:38;;;;;;;15.77;9.43;;;;;;;;;;5006706;28;20400;-58
2023/10/02 04:14:17;;;;;;;16.42;9.65;;;;;;;;;;5007295;28;20904;-58
2023/10/02 04:16:43;;;;;;;18.13;9.70;;;;;;;;;;5005612;28;20819;-58
2023/10/02 04:19:08;;;;;;;17.43;10.10;;;;;;;;;;5002146;28;20396;-58
2023/10/02 04:21:34;;;;;;;18.00;10.63;;;;;;;;;;5000275;28;20388;-58
2023/10/02 04:23:59;;;;;;;18.35;10.13;;;;;;;;;;5004303;28;20472;-58
2023/10/02 04:26:24;;;;;;;16.80;9.77;;;;;;;;;;5000988;28;20407;-58
2023/10/02 04:28:58;;;;;;;17.73;9.60;;;;;;;;;;5007380;28;20413;-58
2023/10/02 04:31:27;;;;;;;17.30;9.38;;;;;;;;;;5006895;28;20720;-58
2023/10/02 04:34:14;;;;;;;15.60;9.32;;;;;;;;;;5005489;28;20784;-58
2023/10/02 04:36:40;;;;;;;17.60;10.35;;;;;;;;;;5005666;28;20391;-58
2023/10/02 04:39:11;;;;;;;18.85;9.73;;;;;;;;;;5007060;28;20772;-58
2023/10/02 04:42:05;;;;;;;17.55;9.48;;;;;;;;;;5007294;28;20403;-58
2023/10/02 04:44:22;;;;;;;16.77;10.05;;;;;;;;;;4997665;28;20414;-58
2023/10/02 04:46:52;;;;;;;18.47;10.37;;;;;;;;;;4998075;28;20412;-58
2023/10/02 04:49:17;;;;;;;18.00;9.77;;;;;;;;;;5002843;28;20405;-58
2023/10/02 04:51:46;;;;;;;16.05;9.48;;;;;;;;;;5005610;28;21204;-58
2023/10/02 04:54:11;;;;;;;17.77;9.63;;;;;;;;;;5004664;28;20409;-58
2023/10/02 04:56:42;;;;;;;16.27;9.60;;;;;;;;;;5006729;28;20439;-58
2023/10/02 04:59:09;;;;;;;17.42;9.88;;;;;;;;;;5007224;28;20403;-58
2023/10/02 05:01:34;;;;;;;16.92;9.95;;;;;;;;;;5004201;28;20408;-58
2023/10/02 05:04:03;;;;;;;15.97;9.13;;;;;;;;;;5003123;28;20936;-58
2023/10/02 05:06:44;;;;;;;15.25;9.40;;;;;;;;;;4998416;28;20402;-58
2023/10/02 05:11:50;;;;;;;17.75;9.68;;;;;;;;;;5000547;28;20920;-58
2023/10/02 05:14:16;;;;;;;16.35;9.48;;;;;;;;;;5004117;28;20412;-58
2023/10/02 05:16:45;;;;;;;17.73;9.93;;;;;;;;;;5006243;28;20423;-58
2023/10/02 05:19:14;;;;;;;16.50;9.68;;;;;;;;;;5011575;28;20491;-58
2023/10/02 05:21:39;;;;;;;18.65;9.77;;;;;;;;;;5005475;28;20426;-58
2023/10/02 05:24:05;;;;;;;17.40;9.77;;;;;;;;;;5004877;28;20412;-58
2023/10/02 05:26:36;;;;;;;17.45;9.55;;;;;;;;;;5004366;28;20395;-58
2023/10/02 05:29:01;;;;;;;18.20;9.18;;;;;;;;;;4997091;28;20418;-58
2023/10/02 05:31:27;;;;;;;17.07;9.60;;;;;;;;;;4997907;28;20771;-58
2023/10/02 05:33:53;;;;;;;16.80;9.68;;;;;;;;;;5001695;28;20506;-58
2023/10/02 05:36:21;;;;;;;17.25;9.95;;;;;;;;;;5004973;28;20879;-58
2023/10/02 05:39:16;;;;;;;17.50;9.95;;;;;;;;;;5004082;28;20411;-58
2023/10/02 05:41:41;;;;;;;17.73;9.70;;;;;;;;;;5003309;28;20416;-58
2023/10/02 05:44:13;;;;;;;16.80;9.70;;;;;;;;;;5005863;28;20409;-58
2023/10/02 05:46:55;;;;;;;16.45;9.43;;;;;;;;;;5005732;28;20411;-58
2023/10/02 05:49:23;;;;;;;15.83;9.33;;;;;;;;;;5001153;28;20399;-58
2023/10/02 05:51:48;;;;;;;17.90;9.90;;;;;;;;;;4997569;28;20397;-58
2023/10/02 05:54:14;;;;;;;18.95;10.40;;;;;;;;;;4997007;28;20765;-58
2023/10/02 05:56:41;;;;;;;16.27;9.15;;;;;;;;;;4996069;28;20417;-58
2023/10/02 05:59:06;;;;;;;18.07;10.10;;;;;;;;;;5002769;28;20764;-58
2023/10/02 06:01:34;;;;;;;16.57;9.83;;;;;;;;;;5004676;28;20423;-58
2023/10/02 06:04:00;;;;;;;16.90;10.37;;;;;;;;;;5011584;28;20528;-59
2023/10/02 06:06:27;;;;;;;16.10;9.90;;;;;;;;;;5003215;28;20404;-58
2023/10/02 06:08:55;;;;;;;17.97;10.07;;;;;;;;;;5004619;28;20760;-59
2023/10/02 06:11:26;;;;;;;17.17;9.73;;;;;;;;;;5007390;28;20399;-58
2023/10/02 06:13:54;;;;;;;16.20;9.73;;;;;;;;;;4996084;28;20877;-59
2023/10/02 06:16:23;;;;;;;16.92;9.88;;;;;;;;;;4996140;28;20941;-59
2023/10/02 06:19:00;;;;;;;16.50;9.63;;;;;;;;;;4999665;28;20501;-59
2023/10/02 06:21:25;;;;;;;17.20;9.70;;;;;;;;;;5010341;28;21332;-59
2023/10/02 06:23:52;;;;;;;17.43;10.10;;;;;;;;;;5004196;28;20426;-59
2023/10/02 06:26:17;;;;;;;15.70;9.50;;;;;;;;;;5003890;28;20408;-58
2023/10/02 06:28:47;;;;;;;18.07;10.00;;;;;;;;;;5005267;28;20415;-58
2023/10/02 06:31:15;;;;;;;17.95;9.52;;;;;;;;;;5003872;28;20416;-58
2023/10/02 06:33:40;;;;;;;18.90;10.07;;;;;;;;;;5017911;28;20412;-58
2023/10/02 06:36:06;;;;;;;18.08;10.32;;;;;;;;;;5023178;28;20568;-58
2023/10/02 06:38:31;;;;;;;18.77;10.17;;;;;;;;;;5019389;28;20401;-59
2023/10/02 06:40:59;;;;;;;18.38;9.88;;;;;;;;;;5014177;28;20971;-59
2023/10/02 06:43:30;;;;;;;19.35;9.93;;;;;;;;;;5017364;28;20399;-59
2023/10/02 06:46:06;;;;;;;17.55;10.15;;;;;;;;;;5018216;28;20403;-59
2023/10/02 06:48:34;;;;;;;18.17;10.23;;;;;;;;;;5019923;28;21058;-58
2023/10/02 06:51:00;;;;;;;16.70;9.97;;;;;;;;;;5015055;28;20482;-59
2023/10/02 06:53:26;;;;;;;18.30;10.60;;;;;;;;;;5015084;28;20397;-59
2023/10/02 06:55:58;;;;;;;18.70;10.23;;;;;;;;;;5015664;28;20407;-59
2023/10/02 06:58:25;;;;;;;19.42;10.35;;;;;;;;;;5013780;28;21024;-59
2023/10/02 07:01:01;;;;;;;20.73;10.27;;;;;;;;;;5021842;28;20403;-59
2023/10/02 07:03:26;;;;;;;19.70;10.65;;;;;;;;;;5019482;28;20391;-59
2023/10/02 07:05:51;;;;;;;19.53;11.00;;;;;;;;;;5020233;28;20412;-59
2023/10/02 07:08:18;;;;;;;20.70;11.20;;;;;;;;;;5013959;28;20469;-59
2023/10/02 07:10:45;;;;;;;22.17;11.20;;;;;;;;;;5021794;28;20411;-59
2023/10/02 07:13:21;;;;;;;21.03;11.10;;;;;;;;;;5017024;28;20430;-59
2023/10/02 07:15:47;;;;;;;20.90;11.50;;;;;;;;;;5022128;28;20410;-59
2023/10/02 07:18:12;;;;;;;22.27;11.20;;;;;;;;;;5014117;28;20416;-59
2023/10/02 07:20:42;;;;;;;20.10;11.07;;;;;;;;;;5015034;28;20411;-59
2023/10/02 07:23:13;;;;;;;22.23;11.43;;;;;;;;;;5014306;28;20501;-59
2023/10/02 07:25:38;;;;;;;22.17;11.35;;;;;;;;;;5014467;28;20419;-59
2023/10/02 07:28:03;;;;;;;20.33;11.00;;;;;;;;;;5021317;28;20481;-60
2023/10/02 07:30:29;;;;;;;20.20;11.50;;;;;;;;;;5016868;28;20420;-59
2023/10/02 07:33:02;;;;;;;19.52;11.23;;;;;;;;;;5020596;28;20427;-59
2023/10/02 07:35:28;;;;;;;20.23;11.43;;;;;;;;;;5025725;28;20443;-59
2023/10/02 07:37:59;;;;;;;19.48;11.00;;;;;;;;;;5015411;28;20859;-59
2023/10/02 07:40:26;;;;;;;19.35;11.48;;;;;;;;;;5016994;28;20418;-59
2023/10/02 07:42:52;;;;;;;19.95;11.00;;;;;;;;;;5018581;28;20419;-59
2023/10/02 07:45:26;;;;;;;21.53;11.47;;;;;;;;;;5024588;28;20817;-59
2023/10/02 07:48:11;;;;;;;20.60;10.98;;;;;;;;;;5020371;28;20419;-59
2023/10/02 07:50:39;;;;;;;19.00;10.73;;;;;;;;;;5023086;28;20395;-59
2023/10/02 07:53:06;;;;;;;22.80;11.65;;;;;;;;;;5025631;28;20418;-59
2023/10/02 07:55:33;;;;;;;21.65;11.55;;;;;;;;;;5018404;28;20408;-59
2023/10/02 07:58:00;;;;;;;18.95;10.85;;;;;;;;;;5018634;28;20433;-59
2023/10/02 08:00:37;;;;;;;21.08;11.18;;;;;;;;;;5017549;28;20416;-59
2023/10/02 08:03:04;;;;;;;20.83;11.80;;;;;;;;;;5016816;28;20410;-59
2023/10/02 08:05:35;;;;;;;20.85;11.98;;;;;;;;;;5018734;28;20487;-59
2023/10/02 08:08:08;;;;;;;19.38;11.20;;;;;;;;;;5018144;28;20414;-59
2023/10/02 08:10:49;;;;;;;21.05;11.80;;;;;;;;;;5017583;28;20487;-58
2023/10/02 08:13:14;;;;;;;22.17;11.98;;;;;;;;;;5015261;28;20420;-59
2023/10/02 08:15:40;;;;;;;20.35;11.60;;;;;;;;;;5023018;28;20407;-59
2023/10/02 08:18:14;;;;;;;21.63;11.53;;;;;;;;;;5030936;28;20549;-59
2023/10/02 08:20:40;;;;;;;20.38;11.48;;;;;;;;;;5032327;28;20435;-58
2023/10/02 08:23:21;;;;;;;19.75;11.45;;;;;;;;;;5031700;28;20886;-59
2023/10/02 08:25:47;;;;;;;20.45;11.70;;;;;;;;;;5031293;28;20480;-58
2023/10/02 08:28:23;;;;;;;21.67;11.95;;;;;;;;;;5031275;28;20391;-59
2023/10/02 08:30:59;;;;;;;20.20;11.20;;;;;;;;;;5047847;28;20401;-59
2023/10/02 08:33:25;;;;;;;19.95;11.40;;;;;;;;;;5050579;28;20476;-59
2023/10/02 08:35:51;;;;;;;20.53;11.50;;;;;;;;;;5051829;28;20470;-59
2023/10/02 08:38:23;;;;;;;21.48;12.45;;;;;;;;;;5051272;28;20413;-59
2023/10/02 08:40:57;;;;;;;22.85;12.45;;;;;;;;;;5051003;28;20768;-59
2023/10/02 08:43:22;;;;;;;20.55;12.00;;;;;;;;;;5041842;28;20391;-59
2023/10/02 08:45:48;;;;;;;19.27;11.33;;;;;;;;;;5031803;28;20889;-59
2023/10/02 08:48:17;;;;;;;22.63;11.85;;;;;;;;;;5030349;28;20403;-59
2023/10/02 08:50:47;;;;;;;22.25;12.43;;;;;;;;;;5031099;28;20879;-58
2023/10/02 08:53:19;;;;;;;24.80;13.30;;;;;;;;;;5031209;28;20411;-58
2023/10/02 08:58:16;;;;;;;21.27;12.10;;;;;;;;;;5031197;28;20898;-59
2023/10/02 09:01:27;;;;;;;22.52;11.93;;;;;;;;;;5030731;28;20399;-59
2023/10/02 09:03:47;;;;;;;22.42;12.10;;;;;;;;;;5030827;28;20869;-59
2023/10/02 09:06:27;;;;;;;21.02;11.82;;;;;;;;;;5030997;28;20532;-59
2023/10/02 09:11:36;;;;;;;21.83;12.30;;;;;;;;;;5030898;28;20394;-59
2023/10/02 09:16:46;;;;;;;22.20;12.70;;;;;;;;;;5030972;28;20397;-59
2023/10/02 09:19:30;;;;;;;22.73;12.25;;;;;;;;;;5030580;28;20763;-59
2023/10/02 09:22:12;;;;;;;21.00;12.13;;;;;;;;;;5030286;28;20407;-59
2023/10/02 09:24:40;;;;;;;24.37;12.53;;;;;;;;;;5030503;28;20417;-58
2023/10/02 09:27:23;;;;;;;21.88;12.23;;;;;;;;;;5030593;28;20403;-59
2023/10/02 09:30:15;;;;;;;21.58;11.98;;;;;;;;;;5029932;28;20408;-59
2023/10/02 09:32:47;;;;;;;21.27;11.63;;;;;;;;;;5030743;28;20454;-58
2023/10/02 09:35:21;;;;;;;21.17;12.40;;;;;;;;;;5027041;28;20502;-59
2023/10/02 09:37:49;;;;;;;21.45;12.23;;;;;;;;;;5015567;28;20467;-59
2023/10/02 09:40:15;;;;;;;23.80;12.15;;;;;;;;;;5017083;28;21535;-58
2023/10/02 09:42:45;;;;;;;21.97;11.43;;;;;;;;;;5022540;28;20411;-59
2023/10/02 09:45:11;;;;;;;23.15;12.65;;;;;;;;;;5022303;28;20427;-59
2023/10/02 09:47:36;;;;;;;22.47;12.17;;;;;;;;;;5018603;28;20436;-59
2023/10/02 09:50:12;;;;;;;22.55;12.20;;;;;;;;;;5022204;28;20408;-59
2023/10/02 09:52:39;;;;;;;22.55;11.95;;;;;;;;;;5022947;28;21326;-59
2023/10/02 09:55:07;;;;;;;22.30;11.38;;;;;;;;;;5015066;28;20416;-58
2023/10/02 09:57:51;;;;;;;20.07;12.03;;;;;;;;;;5014910;28;20407;-58
2023/10/02 10:00:36;;;;;;;21.77;12.35;;;;;;;;;;5022782;28;20399;-59
2023/10/02 10:03:22;;;;;;;21.40;12.30;;;;;;;;;;5014236;28;20444;-59
2023/10/02 10:06:06;;;;;;;22.83;11.93;;;;;;;;;;5022600;28;20774;-58
2023/10/02 10:09:18;;;;;;;21.15;12.38;;;;;;;;;;5016878;28;20441;-59
2023/10/02 10:11:36;;;;;;;22.03;12.13;;;;;;;;;;5016614;28;20399;-59
2023/10/02 10:14:35;;;;;;;23.43;11.97;;;;;;;;;;5021558;28;20419;-59
2023/10/02 10:17:02;;;;;;;23.77;12.10;;;;;;;;;;5022667;28;20503;-60
2023/10/02 10:19:31;;;;;;;24.30;12.18;;;;;;;;;;5015385;28;20427;-59
2023/10/02 10:21:56;;;;;;;20.25;11.50;;;;;;;;;;5017453;28;20798;-59
2023/10/02 10:24:30;;;;;;;21.60;11.93;;;;;;;;;;5022793;28;20407;-59
2023/10/02 10:26:56;;;;;;;21.48;12.18;;;;;;;;;;5022360;28;20804;-59
2023/10/02 10:29:36;;;;;;;20.30;12.10;;;;;;;;;;5013185;28;20402;-59
2023/10/02 10:32:14;;;;;;;21.63;12.27;;;;;;;;;;5017133;28;20987;-60
2023/10/02 10:35:11;;;;;;;22.00;11.93;;;;;;;;;;5023510;28;20432;-59
2023/10/02 10:37:41;;;;;;;22.85;12.15;;;;;;;;;;5014560;28;20418;-59
2023/10/02 10:40:41;;;;;;;20.17;11.43;;;;;;;;;;5014029;28;20420;-59
2023/10/02 10:42:57;;;;;;;21.58;11.07;;;;;;;;;;5016426;28;20411;-59
2023/10/02 10:45:24;;;;;;;21.50;11.27;;;;;;;;;;5014824;28;20410;-59
2023/10/02 10:47:49;;;;;;;21.67;11.77;;;;;;;;;;5019408;28;20466;-59
2023/10/02 10:50:29;;;;;;;21.52;11.65;;;;;;;;;;5019956;28;20399;-59
2023/10/02 10:53:26;;;;;;;19.50;11.53;;;;;;;;;;5017791;28;20395;-59
2023/10/02 10:55:43;;;;;;;22.55;11.82;;;;;;;;;;5014795;28;20410;-59
2023/10/02 10:58:09;;;;;;;21.47;12.13;;;;;;;;;;5021832;28;20918;-59
2023/10/02 11:00:39;;;;;;;21.38;12.23;;;;;;;;;;5015356;28;20451;-59
2023/10/02 11:03:08;;;;;;;22.98;13.10;;;;;;;;;;5015825;28;20408;-59
2023/10/02 11:05:34;;;;;;;22.33;13.07;;;;;;;;;;5022598;28;20977;-59
2023/10/02 11:08:01;;;;;;;23.67;13.20;;;;;;;;;;5014131;28;20429;-59
2023/10/02 11:10:27;;;;;;;21.83;12.52;;;;;;;;;;5017145;28;20405;-59
2023/10/02 11:12:56;;;;;;;23.77;12.88;;;;;;;;;;5014385;28;20537;-59
2023/10/02 11:18:18;;;;;;;23.17;12.80;;;;;;;;;;5018585;28;20412;-59
2023/10/02 11:20:45;;;;;;;23.35;13.13;;;;;;;;;;5020730;28;20425;-59
2023/10/02 11:23:10;;;;;;;21.10;13.20;;;;;;;;;;5025135;28;20421;-59
2023/10/02 11:25:39;;;;;;;24.50;12.70;;;;;;;;;;5016944;28;20399;-59
2023/10/02 11:28:04;;;;;;;23.02;13.00;;;;;;;;;;5016978;28;20531;-59
2023/10/02 11:30:31;;;;;;;21.07;12.60;;;;;;;;;;5019345;28;20518;-59
2023/10/02 11:33:04;;;;;;;22.63;12.07;;;;;;;;;;5025999;28;20437;-59
2023/10/02 11:35:37;;;;;;;23.40;12.50;;;;;;;;;;5025076;28;20399;-59
2023/10/02 11:38:03;;;;;;;23.50;12.38;;;;;;;;;;5019206;28;20454;-60
2023/10/02 11:40:28;;;;;;;20.45;12.13;;;;;;;;;;5025874;28;20394;-59
2023/10/02 11:42:53;;;;;;;24.10;12.83;;;;;;;;;;5026623;28;20405;-59
2023/10/02 11:45:19;;;;;;;20.40;12.60;;;;;;;;;;5022702;28;20762;-59
2023/10/02 11:47:44;;;;;;;21.47;12.00;;;;;;;;;;5023582;28;20400;-59
2023/10/02 11:50:09;;;;;;;24.57;12.53;;;;;;;;;;5024583;28;20498;-59
2023/10/02 11:52:34;;;;;;;21.43;11.73;;;;;;;;;;5018301;28;20451;-59
2023/10/02 11:55:00;;;;;;;21.13;11.77;;;;;;;;;;5019317;28;20921;-59
2023/10/02 11:57:25;;;;;;;25.40;12.87;;;;;;;;;;5022687;28;20425;-59
2023/10/02 11:59:51;;;;;;;24.33;12.90;;;;;;;;;;5017377;28;20489;-59
2023/10/02 12:02:16;;;;;;;23.52;12.15;;;;;;;;;;5020577;28;21074;-59
2023/10/02 12:04:43;;;;;;;21.73;12.00;;;;;;;;;;5023978;28;20407;-59
2023/10/02 12:07:08;;;;;;;20.97;12.07;;;;;;;;;;5016881;28;20404;-60
2023/10/02 12:09:34;;;;;;;21.30;11.77;;;;;;;;;;5023357;28;20402;-59
2023/10/02 12:11:59;;;;;;;22.57;11.83;;;;;;;;;;5021789;28;20406;-59
2023/10/02 12:14:25;;;;;;;21.35;11.85;;;;;;;;;;5016885;28;20435;-59
2023/10/02 12:16:52;;;;;;;23.23;11.30;;;;;;;;;;5017675;28;20401;-59
2023/10/02 12:19:17;;;;;;;21.52;11.98;;;;;;;;;;5018647;28;20435;-60
2023/10/02 12:21:42;;;;;;;19.85;11.90;;;;;;;;;;5025493;28;20500;-59
2023/10/02 12:24:08;;;;;;;21.42;12.27;;;;;;;;;;5016455;28;20416;-59
2023/10/02 12:26:33;;;;;;;22.38;12.43;;;;;;;;;;5019691;28;20443;-59
2023/10/02 12:29:00;;;;;;;21.47;12.43;;;;;;;;;;5024248;28;20418;-59
2023/10/02 12:31:26;;;;;;;21.77;12.95;;;;;;;;;;5024309;28;20400;-59
2023/10/02 12:33:52;;;;;;;22.65;12.52;;;;;;;;;;5017746;28;20458;-59
2023/10/02 12:36:19;;;;;;;21.10;12.45;;;;;;;;;;5018470;28;20407;-59
2023/10/02 12:38:45;;;;;;;21.42;12.10;;;;;;;;;;5024085;28;20877;-59
2023/10/02 12:41:11;;;;;;;22.87;12.30;;;;;;;;;;5014951;28;20444;-59
2023/10/02 12:43:36;;;;;;;19.07;11.13;;;;;;;;;;5020834;28;20406;-59
2023/10/02 12:46:04;;;;;;;22.50;12.80;;;;;;;;;;5015600;28;20412;-60
2023/10/02 12:48:30;;;;;;;21.33;12.35;;;;;;;;;;5016496;28;20418;-59
2023/10/02 12:50:57;;;;;;;25.08;14.02;;;;;;;;;;5022222;28;20797;-59
2023/10/02 12:53:22;;;;;;;24.30;12.87;;;;;;;;;;5020520;28;20397;-59
2023/10/02 12:55:47;;;;;;;23.97;13.00;;;;;;;;;;5024827;28;20416;-59
2023/10/02 12:58:14;;;;;;;23.07;13.53;;;;;;;;;;5023173;28;20394;-59
2023/10/02 13:00:39;;;;;;;22.80;13.10;;;;;;;;;;5018836;28;20409;-59
2023/10/02 13:03:06;;;;;;;22.23;13.37;;;;;;;;;;5024619;28;20409;-59
2023/10/02 13:05:31;;;;;;;23.05;13.57;;;;;;;;;;5023835;28;20403;-59
2023/10/02 13:07:57;;;;;;;23.70;13.30;;;;;;;;;;5020336;28;20819;-59
2023/10/02 13:10:24;;;;;;;25.58;14.30;;;;;;;;;;5022563;28;20414;-59
2023/10/02 13:12:49;;;;;;;25.15;13.25;;;;;;;;;;5024164;28;20431;-59
2023/10/02 13:15:15;;;;;;;26.87;13.83;;;;;;;;;;5015904;28;20508;-59
2023/10/02 13:17:40;;;;;;;25.30;12.68;;;;;;;;;;5017888;28;20410;-59
2023/10/02 13:20:08;;;;;;;25.40;13.73;;;;;;;;;;5023737;28;20456;-59
2023/10/02 13:22:35;;;;;;;25.27;13.27;;;;;;;;;;5015561;28;20400;-60
2023/10/02 13:25:04;;;;;;;22.77;13.68;;;;;;;;;;5018563;28;20411;-60
2023/10/02 13:27:31;;;;;;;23.55;12.77;;;;;;;;;;5018710;28;20442;-59
2023/10/02 13:29:56;;;;;;;26.92;13.98;;;;;;;;;;5027661;28;20401;-59
2023/10/02 13:32:22;;;;;;;24.13;13.53;;;;;;;;;;5024307;28;21123;-59
2023/10/02 13:34:48;;;;;;;23.95;13.85;;;;;;;;;;5006509;28;20895;-59
2023/10/02 13:37:13;;;;;;;23.17;13.43;;;;;;;;;;5004341;28;20468;-59
2023/10/02 13:39:39;;;;;;;21.57;13.10;;;;;;;;;;5018500;28;20452;-59
2023/10/02 13:42:04;;;;;;;24.87;13.57;;;;;;;;;;5014143;28;20530;-59
2023/10/02 13:44:30;;;;;;;22.58;12.80;;;;;;;;;;5005344;28;20450;-59
2023/10/02 13:46:55;;;;;;;22.93;12.50;;;;;;;;;;5005444;28;20397;-59
2023/10/02 13:49:20;;;;;;;21.83;12.93;;;;;;;;;;5006070;28;20872;-59
2023/10/02 13:51:46;;;;;;;24.77;12.82;;;;;;;;;;5005855;28;20432;-59
2023/10/02 13:54:12;;;;;;;23.08;13.23;;;;;;;;;;5004522;28;20428;-60
2023/10/02 13:56:38;;;;;;;22.80;12.90;;;;;;;;;;5016412;28;20398;-59
2023/10/02 13:59:03;;;;;;;24.60;13.43;;;;;;;;;;5011312;28;20405;-60
2023/10/02 14:01:30;;;;;;;22.30;12.83;;;;;;;;;;4998764;28;20645;-59
2023/10/02 14:03:56;;;;;;;24.00;13.10;;;;;;;;;;5021189;28;20498;-59
2023/10/02 14:06:23;;;;;;;22.53;12.97;;;;;;;;;;5014170;28;20756;-59
2023/10/02 14:08:49;;;;;;;22.08;13.10;;;;;;;;;;5007686;28;20497;-59
2023/10/02 14:11:16;;;;;;;22.05;13.00;;;;;;;;;;5008867;28;20412;-59
2023/10/02 14:13:42;;;;;;;22.40;12.52;;;;;;;;;;5009179;28;20686;-59
2023/10/02 14:16:07;;;;;;;21.50;12.67;;;;;;;;;;5016114;28;20391;-60
2023/10/02 14:18:34;;;;;;;23.50;12.82;;;;;;;;;;5002904;28;20955;-59
2023/10/02 14:21:00;;;;;;;22.48;12.95;;;;;;;;;;5002185;28;20408;-59
2023/10/02 14:23:28;;;;;;;26.27;13.88;;;;;;;;;;5000896;28;20392;-59
2023/10/02 14:25:54;;;;;;;25.20;13.77;;;;;;;;;;5004832;28;20411;-59
2023/10/02 14:28:20;;;;;;;24.88;14.52;;;;;;;;;;5010083;28;20499;-59
2023/10/02 14:30:45;;;;;;;24.00;13.57;;;;;;;;;;5014085;28;20963;-59
2023/10/02 14:33:10;;;;;;;25.37;13.87;;;;;;;;;;5007778;28;20416;-59
2023/10/02 14:35:35;;;;;;;23.43;13.53;;;;;;;;;;5008816;28;20400;-59
2023/10/02 14:38:03;;;;;;;24.80;13.83;;;;;;;;;;5008388;28;20931;-61
2023/10/02 14:40:29;;;;;;;23.73;14.30;;;;;;;;;;5007458;28;20432;-59
2023/10/02 14:42:56;;;;;;;24.33;14.13;;;;;;;;;;4999862;28;20557;-59
2023/10/02 14:45:26;;;;;;;24.83;14.50;;;;;;;;;;5016490;28;20959;-59
2023/10/02 14:47:53;;;;;;;22.93;13.50;;;;;;;;;;5010326;28;20406;-59
2023/10/02 14:50:19;;;;;;;28.00;14.30;;;;;;;;;;5010582;28;20403;-60
2023/10/02 14:52:44;;;;;;;25.02;14.40;;;;;;;;;;5012932;28;20958;-59
2023/10/02 14:55:16;;;;;;;26.13;14.80;;;;;;;;;;5012785;28;20407;-59